Main page
Satellite images 15-day forecastsClimateMarine weather Cyclones Lightning AirportsFAQ Newsletter About
Weather : Europe Africa North America South America Asia Australia-Oceania Others
Languages Contact

Istanbul Atatürk, Turkey

latitude: 40-58N, longitude: 028-49E, elevation: 48 m


METAR: LTBA 280850Z 10005KT 010V170 9999 SCT015 BKN070 10/06 Q1025 NOSIG
TAF: LTBA 280440Z 2806/2912 04007KT CAVOK TEMPO 2806/2810 SCT035 BECMG 2900/2903 22012KT

Time: 11:22 (09:22 UTC)

Current weather observation

The report was made 32 minutes ago, at 08:50 UTC
Wind 5 kt from the East, varying between North and South
Temperature 10°C
Humidity 76%
Pressure 1025 hPa
Visibility 10 km or more
Scattered clouds at a height of 1500 ft
Broken clouds at a height of 7000 ft

Change units

Forecast

The report was made 4 hours and 42 minutes ago, at 04:40 UTC
Forecast valid from 28 at 06 UTC to 29 at 12 UTC
Wind 7 kt from the Northeast
Visibility 10 km or more
no clouds below 1500 m and no cumulonimbus
Temporary
from 28 at 06 UTC to 28 at 10 UTC
Scattered clouds at a height of 3500 ft
Becoming
from 29 at 00 UTC to 29 at 03 UTC
Wind 12 kt from the Southwest
The information on this site is subject to a disclaimer
Weather : Europe Africa North America South America Asia Australia-Oceania Others
Satellite images 15-day forecastsClimateMarine weather Cyclones Lightning AirportsFAQ Languages Contact Newsletter About